createdAt,value
2023-02-22T00:01:35.247Z,100.00
2023-02-22T00:04:02.969Z,100.00
2023-02-22T00:06:30.972Z,100.00
2023-02-22T00:08:58.219Z,100.00
2023-02-22T00:11:25.054Z,100.00
2023-02-22T00:13:51.499Z,100.00
2023-02-22T00:16:19.323Z,100.00
2023-02-22T00:18:45.906Z,100.00
2023-02-22T00:21:13.215Z,100.00
2023-02-22T00:23:41.003Z,100.00
2023-02-22T00:26:10.126Z,100.00
2023-02-22T00:28:37.526Z,100.00
2023-02-22T00:31:06.640Z,100.00
2023-02-22T00:33:33.537Z,100.00
2023-02-22T00:35:59.781Z,100.00
2023-02-22T00:38:26.076Z,100.00
2023-02-22T00:40:52.509Z,100.00
2023-02-22T00:43:18.736Z,100.00
2023-02-22T00:45:45.085Z,100.00
2023-02-22T00:48:11.544Z,100.00
2023-02-22T00:50:37.854Z,100.00
2023-02-22T00:53:04.880Z,100.00
2023-02-22T00:55:32.807Z,100.00
2023-02-22T00:57:59.456Z,100.00
2023-02-22T01:00:27.460Z,100.00
2023-02-22T01:02:54.043Z,100.00
2023-02-22T01:05:21.518Z,100.00
2023-02-22T01:07:49.105Z,100.00
2023-02-22T01:10:16.254Z,100.00
2023-02-22T01:12:42.814Z,100.00
2023-02-22T01:15:11.401Z,100.00
2023-02-22T01:17:38.197Z,100.00
2023-02-22T01:20:10.392Z,100.00
2023-02-22T01:22:37.417Z,100.00
2023-02-22T01:25:07.437Z,100.00
2023-02-22T01:27:34.865Z,100.00
2023-02-22T01:30:01.809Z,100.00
2023-02-22T01:32:28.254Z,100.00
2023-02-22T01:34:54.640Z,100.00
2023-02-22T01:37:20.923Z,100.00
2023-02-22T01:39:47.419Z,100.00
2023-02-22T01:42:13.875Z,100.00
2023-02-22T01:44:41.449Z,100.00
2023-02-22T01:47:09.285Z,100.00
2023-02-22T01:49:35.518Z,100.00
2023-02-22T01:52:03.781Z,100.00
2023-02-22T01:54:39.399Z,100.00
2023-02-22T01:57:06.085Z,100.00
2023-02-22T01:59:34.257Z,100.00
2023-02-22T02:02:00.809Z,100.00
2023-02-22T02:04:27.854Z,100.00
2023-02-22T02:06:56.213Z,100.00
2023-02-22T02:09:31.568Z,100.00
2023-02-22T02:12:00.707Z,100.00
2023-02-22T02:14:27.511Z,100.00
2023-02-22T02:16:56.169Z,100.00
2023-02-22T02:19:40.624Z,100.00
2023-02-22T02:22:25.901Z,100.00
2023-02-22T02:25:05.672Z,100.00
2023-02-22T02:27:40.952Z,100.00
2023-02-22T02:30:32.157Z,100.00
2023-02-22T02:33:01.539Z,100.00
2023-02-22T02:35:48.157Z,100.00
2023-02-22T02:38:29.904Z,100.00
2023-02-22T02:40:59.309Z,100.00
2023-02-22T02:43:36.422Z,100.00
2023-02-22T02:46:05.685Z,100.00
2023-02-22T02:48:33.998Z,100.00
2023-02-22T02:51:01.228Z,100.00
2023-02-22T02:53:32.653Z,100.00
2023-02-22T02:55:59.774Z,100.00
2023-02-22T02:58:26.690Z,100.00
2023-02-22T03:00:55.515Z,100.00
2023-02-22T03:03:21.770Z,100.00
2023-02-22T03:05:48.021Z,100.00
2023-02-22T03:08:17.408Z,100.00
2023-02-22T03:10:50.398Z,100.00
2023-02-22T03:13:28.942Z,100.00
2023-02-22T03:16:05.236Z,100.00
2023-02-22T03:18:31.518Z,100.00
2023-02-22T03:21:06.810Z,100.00
2023-02-22T03:23:37.944Z,100.00
2023-02-22T03:26:07.536Z,100.00
2023-02-22T03:28:36.325Z,100.00
2023-02-22T03:31:05.919Z,100.00
2023-02-22T03:33:44.216Z,100.00
2023-02-22T03:36:16.691Z,100.00
2023-02-22T03:38:44.310Z,100.00
2023-02-22T03:41:11.791Z,100.00
2023-02-22T03:43:40.016Z,100.00
2023-02-22T03:46:08.995Z,100.00
2023-02-22T03:48:55.640Z,100.00
2023-02-22T03:51:22.686Z,100.00
2023-02-22T03:53:49.196Z,100.00
2023-02-22T03:56:20.339Z,100.00
2023-02-22T03:58:50.686Z,100.00
2023-02-22T04:01:17.941Z,100.00
2023-02-22T04:03:44.336Z,100.00
2023-02-22T04:06:10.913Z,100.00
2023-02-22T04:08:37.374Z,100.00
2023-02-22T04:11:03.829Z,100.00
2023-02-22T04:13:30.251Z,100.00
2023-02-22T04:15:56.590Z,100.00
2023-02-22T04:18:22.938Z,100.00
2023-02-22T04:20:49.247Z,100.00
2023-02-22T04:23:16.894Z,100.00
2023-02-22T04:25:43.237Z,100.00
2023-02-22T04:28:10.064Z,100.00
2023-02-22T04:30:36.385Z,100.00
2023-02-22T04:33:02.633Z,100.00
2023-02-22T04:35:28.928Z,100.00
2023-02-22T04:37:55.198Z,100.00
2023-02-22T04:40:21.518Z,100.00
2023-02-22T04:42:47.884Z,100.00
2023-02-22T04:45:14.705Z,100.00
2023-02-22T04:47:41.036Z,100.00
2023-02-22T04:50:09.815Z,100.00
2023-02-22T04:52:36.057Z,100.00
2023-02-22T04:55:02.407Z,100.00
2023-02-22T04:57:28.878Z,100.00
2023-02-22T04:59:55.184Z,100.00
2023-02-22T05:02:21.629Z,100.00
2023-02-22T05:04:48.057Z,100.00
2023-02-22T05:07:14.485Z,100.00
2023-02-22T05:09:40.846Z,100.00
2023-02-22T05:12:07.396Z,100.00
2023-02-22T05:14:33.931Z,100.00
2023-02-22T05:17:00.935Z,100.00
2023-02-22T05:19:27.211Z,100.00
2023-02-22T05:21:53.491Z,100.00
2023-02-22T05:24:19.793Z,100.00
2023-02-22T05:26:46.596Z,100.00
2023-02-22T05:29:13.504Z,100.00
2023-02-22T05:31:41.739Z,100.00
2023-02-22T05:34:08.078Z,100.00
2023-02-22T05:36:34.329Z,100.00
2023-02-22T05:39:00.618Z,100.00
2023-02-22T05:41:28.056Z,100.00
2023-02-22T05:43:54.333Z,100.00
2023-02-22T05:46:20.663Z,100.00
2023-02-22T05:48:46.996Z,100.00
2023-02-22T05:51:13.460Z,100.00
2023-02-22T05:53:39.735Z,100.00
2023-02-22T05:56:06.414Z,100.00
2023-02-22T05:58:32.680Z,100.00
2023-02-22T06:00:59.934Z,100.00
2023-02-22T06:03:27.016Z,100.00
2023-02-22T06:05:53.264Z,100.00
2023-02-22T06:08:19.555Z,100.00
2023-02-22T06:10:45.841Z,100.00
2023-02-22T06:13:12.102Z,100.00
2023-02-22T06:15:38.395Z,100.00
2023-02-22T06:18:05.315Z,100.00
2023-02-22T06:20:33.259Z,100.00
2023-02-22T06:22:59.583Z,100.00
2023-02-22T06:25:27.234Z,100.00
2023-02-22T06:27:53.511Z,100.00
2023-02-22T06:30:21.018Z,100.00
2023-02-22T06:32:47.342Z,100.00
2023-02-22T06:35:14.667Z,100.00
2023-02-22T06:37:40.945Z,100.00
2023-02-22T06:40:07.551Z,100.00
2023-02-22T06:42:33.827Z,100.00
2023-02-22T06:45:00.257Z,100.00
2023-02-22T06:47:26.635Z,100.00
2023-02-22T06:49:53.908Z,100.00
2023-02-22T06:52:20.516Z,100.00
2023-02-22T06:54:46.848Z,100.00
2023-02-22T06:57:13.072Z,100.00
2023-02-22T06:59:39.289Z,100.00
2023-02-22T07:02:05.651Z,100.00
2023-02-22T07:04:31.905Z,100.00
2023-02-22T07:06:58.141Z,100.00
2023-02-22T07:09:24.444Z,100.00
2023-02-22T07:11:50.743Z,100.00
2023-02-22T07:14:17.725Z,100.00
2023-02-22T07:16:44.384Z,100.00
2023-02-22T07:19:10.675Z,100.00
2023-02-22T07:21:36.903Z,100.00
2023-02-22T07:24:05.396Z,100.00
2023-02-22T07:26:37.861Z,100.00
2023-02-22T07:29:04.273Z,100.00
2023-02-22T07:31:34.561Z,100.00
2023-02-22T07:34:00.860Z,100.00
2023-02-22T07:36:27.107Z,100.00
2023-02-22T07:38:53.379Z,100.00
2023-02-22T07:41:19.826Z,100.00
2023-02-22T07:43:46.313Z,100.00
2023-02-22T07:46:12.579Z,100.00
2023-02-22T07:48:39.571Z,100.00
2023-02-22T07:51:06.337Z,100.00
2023-02-22T07:53:33.566Z,100.00
2023-02-22T07:56:01.385Z,100.00
2023-02-22T07:58:29.358Z,100.00
2023-02-22T08:00:55.832Z,100.00
2023-02-22T08:03:23.700Z,100.00
2023-02-22T08:05:51.587Z,100.00
2023-02-22T08:08:19.832Z,100.00
2023-02-22T08:10:46.764Z,100.00
2023-02-22T08:13:13.425Z,100.00
2023-02-22T08:15:40.924Z,100.00
2023-02-22T08:18:09.101Z,100.00
2023-02-22T08:20:36.183Z,100.00
2023-02-22T08:23:03.045Z,100.00
2023-02-22T08:25:29.539Z,100.00
2023-02-22T08:28:01.504Z,100.00
2023-02-22T08:30:28.800Z,100.00
2023-02-22T08:32:55.756Z,100.00
2023-02-22T08:35:22.360Z,100.00
2023-02-22T08:37:50.628Z,100.00
2023-02-22T08:40:18.080Z,100.00
2023-02-22T08:42:44.440Z,100.00
2023-02-22T08:45:12.012Z,100.00
2023-02-22T08:47:38.280Z,100.00
2023-02-22T08:50:04.798Z,100.00
2023-02-22T08:52:31.137Z,100.00
2023-02-22T08:54:57.420Z,100.00
2023-02-22T08:57:23.737Z,100.00
2023-02-22T08:59:50.119Z,100.00
2023-02-22T09:02:17.907Z,100.00
2023-02-22T09:04:44.672Z,100.00
2023-02-22T09:07:10.954Z,100.00
2023-02-22T09:09:37.560Z,100.00
2023-02-22T09:12:04.046Z,100.00
2023-02-22T09:14:30.373Z,100.00
2023-02-22T09:16:56.657Z,100.00
2023-02-22T09:19:23.012Z,100.00
2023-02-22T09:21:52.748Z,100.00
2023-02-22T09:24:20.360Z,100.00
2023-02-22T09:26:47.614Z,100.00
2023-02-22T09:29:14.007Z,100.00
2023-02-22T09:31:41.002Z,100.00
2023-02-22T09:34:13.707Z,100.00
2023-02-22T09:36:40.967Z,100.00
2023-02-22T09:39:09.017Z,100.00
2023-02-22T09:41:39.091Z,100.00
2023-02-22T09:44:15.456Z,100.00
2023-02-22T09:46:45.687Z,100.00
2023-02-22T09:49:25.102Z,100.00
2023-02-22T09:52:18.751Z,100.00
2023-02-22T09:54:54.289Z,100.00
2023-02-22T09:57:32.022Z,100.00
2023-02-22T10:00:13.138Z,100.00
2023-02-22T10:02:53.255Z,100.00
2023-02-22T10:05:25.152Z,100.00
2023-02-22T10:07:53.656Z,100.00
2023-02-22T10:10:22.614Z,100.00
2023-02-22T10:13:06.163Z,100.00
2023-02-22T10:15:51.499Z,100.00
2023-02-22T10:18:17.925Z,100.00
2023-02-22T10:20:55.889Z,100.00
2023-02-22T10:23:31.191Z,100.00
2023-02-22T10:26:16.900Z,100.00
2023-02-22T10:28:55.370Z,100.00
2023-02-22T10:31:25.473Z,100.00
2023-02-22T10:33:55.605Z,100.00
2023-02-22T10:36:23.762Z,100.00
2023-02-22T10:39:00.386Z,100.00
2023-02-22T10:41:29.302Z,100.00
2023-02-22T10:43:56.000Z,100.00
2023-02-22T10:46:22.808Z,100.00
2023-02-22T10:48:51.320Z,100.00
2023-02-22T10:51:17.573Z,100.00
2023-02-22T10:53:45.740Z,100.00
2023-02-22T10:56:12.807Z,100.00
2023-02-22T10:58:40.368Z,100.00
2023-02-22T11:01:26.322Z,100.00
2023-02-22T11:03:58.414Z,100.00
2023-02-22T11:06:24.752Z,100.00
2023-02-22T11:08:52.090Z,100.00
2023-02-22T11:11:24.683Z,100.00
2023-02-22T11:13:57.233Z,100.00
2023-02-22T11:16:32.377Z,100.00
2023-02-22T11:19:03.418Z,100.00
2023-02-22T11:21:32.221Z,100.00
2023-02-22T11:24:10.437Z,100.00
2023-02-22T11:26:39.608Z,100.00
2023-02-22T11:29:11.123Z,100.00
2023-02-22T11:31:42.262Z,100.00
2023-02-22T11:34:24.402Z,100.00
2023-02-22T11:36:51.314Z,100.00
2023-02-22T11:39:22.135Z,100.00
2023-02-22T11:41:51.617Z,100.00
2023-02-22T11:44:21.129Z,100.00
2023-02-22T11:46:48.098Z,100.00
2023-02-22T11:49:17.319Z,100.00
2023-02-22T11:52:03.241Z,100.00
2023-02-22T11:54:38.826Z,100.00
2023-02-22T11:57:23.854Z,100.00
2023-02-22T12:00:16.030Z,100.00
2023-02-22T12:02:51.921Z,100.00
2023-02-22T12:05:40.534Z,100.00
2023-02-22T12:08:19.355Z,100.00
2023-02-22T12:10:47.032Z,100.00
2023-02-22T12:13:22.286Z,100.00
2023-02-22T12:16:14.595Z,100.00
2023-02-22T12:19:08.096Z,100.00
2023-02-22T12:21:37.617Z,100.00
2023-02-22T12:24:14.462Z,100.00
2023-02-22T12:26:42.024Z,100.00
2023-02-22T12:29:08.610Z,100.00
2023-02-22T12:31:50.011Z,100.00
2023-02-22T12:34:19.932Z,100.00
2023-02-22T12:36:48.695Z,100.00
2023-02-22T12:39:34.237Z,100.00
2023-02-22T12:42:04.543Z,100.00
2023-02-22T12:44:34.160Z,100.00
2023-02-22T12:47:02.412Z,100.00
2023-02-22T12:49:44.454Z,100.00
2023-02-22T12:52:21.303Z,100.00
2023-02-22T12:55:07.090Z,100.00
2023-02-22T12:57:57.190Z,100.00
2023-02-22T13:00:39.747Z,100.00
2023-02-22T13:03:14.882Z,100.00
2023-02-22T13:05:41.458Z,100.00
2023-02-22T13:08:40.054Z,100.00
2023-02-22T13:11:25.204Z,96.22
2023-02-22T13:13:57.640Z,95.65
2023-02-22T13:16:23.983Z,92.92
2023-02-22T13:18:53.964Z,93.97
2023-02-22T13:21:29.275Z,95.93
2023-02-22T13:24:07.801Z,91.18
2023-02-22T13:26:44.298Z,93.19
2023-02-22T13:29:18.623Z,92.67
2023-02-22T13:32:02.628Z,93.74
2023-02-22T13:34:48.257Z,98.59
2023-02-22T13:37:34.798Z,97.32
2023-02-22T13:40:07.875Z,98.40
2023-02-22T13:42:44.098Z,96.30
2023-02-22T13:45:28.446Z,98.08
2023-02-22T13:48:07.098Z,98.51
2023-02-22T13:50:41.520Z,100.00
2023-02-22T13:53:11.056Z,100.00
2023-02-22T13:55:47.881Z,100.00
2023-02-22T13:58:14.458Z,100.00
2023-02-22T14:00:46.549Z,100.00
2023-02-22T14:03:12.867Z,100.00
2023-02-22T14:05:39.175Z,100.00
2023-02-22T14:08:06.319Z,100.00
2023-02-22T14:10:59.380Z,100.00
2023-02-22T14:13:26.770Z,100.00
2023-02-22T14:16:02.718Z,100.00
2023-02-22T14:18:30.444Z,100.00
2023-02-22T14:21:22.917Z,100.00
2023-02-22T14:23:50.683Z,100.00
2023-02-22T14:26:17.221Z,100.00
2023-02-22T14:28:52.754Z,100.00
2023-02-22T14:31:34.940Z,100.00
2023-02-22T14:34:11.925Z,100.00
2023-02-22T14:36:44.605Z,100.00
2023-02-22T14:39:14.312Z,100.00
2023-02-22T14:41:44.763Z,100.00
2023-02-22T14:44:12.877Z,100.00
2023-02-22T14:46:41.589Z,100.00
2023-02-22T14:49:11.691Z,100.00
2023-02-22T14:51:42.432Z,100.00
2023-02-22T14:54:20.768Z,100.00
2023-02-22T14:56:53.611Z,100.00
2023-02-22T14:59:21.567Z,100.00
2023-02-22T15:02:01.636Z,100.00
2023-02-22T15:04:32.492Z,100.00
2023-02-22T15:06:59.936Z,100.00
2023-02-22T15:09:34.523Z,100.00
2023-02-22T15:12:04.647Z,100.00
2023-02-22T15:14:33.035Z,100.00
2023-02-22T15:17:01.333Z,100.00
2023-02-22T15:19:32.360Z,100.00
2023-02-22T15:21:59.702Z,100.00
2023-02-22T15:24:27.867Z,100.00
2023-02-22T15:27:01.635Z,100.00
2023-02-22T15:29:40.658Z,100.00
2023-02-22T15:32:27.354Z,100.00
2023-02-22T15:34:56.394Z,100.00
2023-02-22T15:37:25.481Z,100.00
2023-02-22T15:39:59.446Z,100.00
2023-02-22T15:42:29.427Z,100.00
2023-02-22T15:44:56.532Z,100.00
2023-02-22T15:47:27.790Z,100.00
2023-02-22T15:50:15.191Z,100.00
2023-02-22T15:52:53.202Z,100.00
2023-02-22T15:55:22.391Z,100.00
2023-02-22T15:57:50.176Z,100.00
2023-02-22T16:00:20.657Z,100.00
2023-02-22T16:02:59.760Z,100.00
2023-02-22T16:05:32.620Z,100.00
2023-02-22T16:08:04.682Z,100.00
2023-02-22T16:10:35.581Z,100.00
2023-02-22T16:13:04.829Z,100.00
2023-02-22T16:15:32.428Z,100.00
2023-02-22T16:18:18.935Z,100.00
2023-02-22T16:20:48.177Z,100.00
2023-02-22T16:23:25.215Z,100.00
2023-02-22T16:26:01.582Z,100.00
2023-02-22T16:28:35.644Z,100.00
2023-02-22T16:31:05.374Z,100.00
2023-02-22T16:33:34.308Z,100.00
2023-02-22T16:36:04.599Z,100.00
2023-02-22T16:38:34.029Z,100.00
2023-02-22T16:41:00.369Z,100.00
2023-02-22T16:43:32.844Z,100.00
2023-02-22T16:46:01.532Z,100.00
2023-02-22T16:48:38.612Z,100.00
2023-02-22T16:51:15.336Z,100.00
2023-02-22T16:53:41.791Z,100.00
2023-02-22T16:56:09.546Z,100.00
2023-02-22T16:58:38.952Z,100.00
2023-02-22T17:01:05.419Z,100.00
2023-02-22T17:03:31.739Z,100.00
2023-02-22T17:05:58.188Z,100.00
2023-02-22T17:08:24.545Z,100.00
2023-02-22T17:10:51.690Z,100.00
2023-02-22T17:13:29.495Z,100.00
2023-02-22T17:15:59.209Z,100.00
2023-02-22T17:18:28.604Z,100.00
2023-02-22T17:20:55.558Z,100.00
2023-02-22T17:23:22.840Z,100.00
2023-02-22T17:25:53.834Z,100.00
2023-02-22T17:28:21.189Z,100.00
2023-02-22T17:30:53.386Z,100.00
2023-02-22T17:33:21.498Z,100.00
2023-02-22T17:35:48.037Z,100.00
2023-02-22T17:38:18.606Z,100.00
2023-02-22T17:40:48.099Z,100.00
2023-02-22T17:43:21.069Z,100.00
2023-02-22T17:45:47.912Z,100.00
2023-02-22T17:48:24.273Z,100.00
2023-02-22T17:50:56.505Z,100.00
2023-02-22T17:53:26.118Z,100.00
2023-02-22T17:55:56.032Z,100.00
2023-02-22T17:58:31.103Z,100.00
2023-02-22T18:00:59.365Z,100.00
2023-02-22T18:03:26.479Z,100.00
2023-02-22T18:05:57.597Z,100.00
2023-02-22T18:08:39.546Z,100.00
2023-02-22T18:11:11.137Z,100.00
2023-02-22T18:13:38.121Z,100.00
2023-02-22T18:16:05.879Z,100.00
2023-02-22T18:18:35.740Z,100.00
2023-02-22T18:21:02.517Z,100.00
2023-02-22T18:23:32.835Z,100.00
2023-02-22T18:26:10.685Z,100.00
2023-02-22T18:28:48.750Z,100.00
2023-02-22T18:31:16.484Z,100.00
2023-02-22T18:33:54.835Z,100.00
2023-02-22T18:36:24.881Z,100.00
2023-02-22T18:38:54.701Z,100.00
2023-02-22T18:41:25.859Z,100.00
2023-02-22T18:43:55.494Z,100.00
2023-02-22T18:46:24.843Z,100.00
2023-02-22T18:48:55.175Z,100.00
2023-02-22T18:51:22.668Z,100.00
2023-02-22T18:53:53.014Z,100.00
2023-02-22T18:56:22.513Z,100.00
2023-02-22T18:58:59.104Z,100.00
2023-02-22T19:01:28.496Z,100.00
2023-02-22T19:03:55.655Z,100.00
2023-02-22T19:06:22.772Z,100.00
2023-02-22T19:08:51.777Z,100.00
2023-02-22T19:11:22.660Z,100.00
2023-02-22T19:13:51.380Z,100.00
2023-02-22T19:16:22.482Z,100.00
2023-02-22T19:18:49.955Z,100.00
2023-02-22T19:21:18.940Z,100.00
2023-02-22T19:23:47.942Z,100.00
2023-02-22T19:26:18.770Z,100.00
2023-02-22T19:28:46.474Z,100.00
2023-02-22T19:31:14.520Z,100.00
2023-02-22T19:33:41.727Z,100.00
2023-02-22T19:36:09.145Z,100.00
2023-02-22T19:38:35.441Z,100.00
2023-02-22T19:41:10.046Z,100.00
2023-02-22T19:43:36.772Z,100.00
2023-02-22T19:46:03.747Z,100.00
2023-02-22T19:48:30.085Z,100.00
2023-02-22T19:51:01.530Z,100.00
2023-02-22T19:53:27.805Z,100.00
2023-02-22T19:55:54.241Z,100.00
2023-02-22T19:58:20.586Z,100.00
2023-02-22T20:00:46.888Z,100.00
2023-02-22T20:03:15.375Z,100.00
2023-02-22T20:05:42.082Z,100.00
2023-02-22T20:08:08.576Z,100.00
2023-02-22T20:10:34.868Z,100.00
2023-02-22T20:13:01.443Z,100.00
2023-02-22T20:15:28.079Z,100.00
2023-02-22T20:17:54.918Z,100.00
2023-02-22T20:20:25.798Z,100.00
2023-02-22T20:22:52.338Z,100.00
2023-02-22T20:25:18.613Z,100.00
2023-02-22T20:27:45.025Z,100.00
2023-02-22T20:30:11.564Z,100.00
2023-02-22T20:32:38.448Z,100.00
2023-02-22T20:35:05.501Z,100.00
2023-02-22T20:37:32.803Z,100.00
2023-02-22T20:39:59.859Z,100.00
2023-02-22T20:42:26.778Z,100.00
2023-02-22T20:44:53.988Z,100.00
2023-02-22T20:47:20.718Z,100.00
2023-02-22T20:49:47.234Z,100.00
2023-02-22T20:52:13.540Z,100.00
2023-02-22T20:54:39.874Z,100.00
2023-02-22T20:57:08.028Z,100.00
2023-02-22T20:59:34.343Z,100.00
2023-02-22T21:02:00.638Z,100.00
2023-02-22T21:04:32.934Z,100.00
2023-02-22T21:07:02.214Z,100.00
2023-02-22T21:09:28.660Z,100.00
2023-02-22T21:11:55.215Z,100.00
2023-02-22T21:14:23.732Z,100.00
2023-02-22T21:16:51.470Z,100.00
2023-02-22T21:19:28.034Z,100.00
2023-02-22T21:21:55.564Z,100.00
2023-02-22T21:24:23.340Z,100.00
2023-02-22T21:26:49.898Z,100.00
2023-02-22T21:29:16.215Z,100.00
2023-02-22T21:31:42.664Z,100.00
2023-02-22T21:34:12.012Z,100.00
2023-02-22T21:36:38.776Z,100.00
2023-02-22T21:39:18.047Z,100.00
2023-02-22T21:41:51.542Z,100.00
2023-02-22T21:44:18.285Z,100.00
2023-02-22T21:46:48.687Z,100.00
2023-02-22T21:49:15.488Z,100.00
2023-02-22T21:51:42.100Z,100.00
2023-02-22T21:54:09.858Z,100.00
2023-02-22T21:56:37.696Z,100.00
2023-02-22T21:59:05.715Z,100.00
2023-02-22T22:01:36.182Z,100.00
2023-02-22T22:04:03.682Z,100.00
2023-02-22T22:06:30.971Z,100.00
2023-02-22T22:08:57.838Z,100.00
2023-02-22T22:11:25.178Z,100.00
2023-02-22T22:13:53.143Z,100.00
2023-02-22T22:16:20.385Z,100.00
2023-02-22T22:18:46.876Z,100.00
2023-02-22T22:21:16.224Z,100.00
2023-02-22T22:23:45.374Z,100.00
2023-02-22T22:26:11.652Z,100.00
2023-02-22T22:28:41.679Z,100.00
2023-02-22T22:31:08.843Z,100.00
2023-02-22T22:33:36.606Z,100.00
2023-02-22T22:36:03.999Z,100.00
2023-02-22T22:38:30.321Z,100.00
2023-02-22T22:41:01.133Z,100.00
2023-02-22T22:43:30.958Z,100.00
2023-02-22T22:46:00.618Z,100.00
2023-02-22T22:48:28.905Z,100.00
2023-02-22T22:50:57.091Z,100.00
2023-02-22T22:53:24.015Z,100.00
2023-02-22T22:55:50.315Z,100.00
2023-02-22T22:58:16.712Z,100.00
2023-02-22T23:00:46.122Z,100.00
2023-02-22T23:03:16.509Z,100.00
2023-02-22T23:05:43.227Z,100.00
2023-02-22T23:08:10.905Z,100.00
2023-02-22T23:10:39.264Z,100.00
2023-02-22T23:13:12.780Z,100.00
2023-02-22T23:15:43.368Z,100.00
2023-02-22T23:18:09.866Z,100.00
2023-02-22T23:20:38.891Z,100.00
2023-02-22T23:23:06.092Z,100.00
2023-02-22T23:25:35.243Z,100.00
2023-02-22T23:28:01.546Z,100.00
2023-02-22T23:30:27.918Z,100.00
2023-02-22T23:32:54.252Z,100.00
2023-02-22T23:35:20.585Z,100.00
2023-02-22T23:37:50.257Z,100.00
2023-02-22T23:40:16.930Z,100.00
2023-02-22T23:42:46.778Z,100.00
2023-02-22T23:45:22.413Z,100.00
2023-02-22T23:47:50.442Z,100.00
2023-02-22T23:50:19.066Z,100.00
2023-02-22T23:52:46.341Z,100.00
2023-02-22T23:55:12.718Z,100.00
2023-02-22T23:57:43.166Z,100.00
